Lickingville, Pennsylvania
Current Conditions -  °F | °C
As of 11:55 AM on Thursday 23 Oct 2014 (Local Time) from KFKL Reporting Station
Few Clouds Few Clouds  
Wind Chill: 55°   Ceiling: Unl
Heat Index: 55°   Visibility: 10mi
Dew Point: 39°   Wind: 13mph
Humidity: 54%   Direction: 10°N
Pressure: 30.12"   Gusts: 21mph
Location:  41.38°N, 79.37°W
Report Text: KFKL 231555Z 01011G18KT 10SM FEW034 13/04 A3012 RMK AO1
Loading
Personal Weather Stations






























Interactive Weather Map
Tropical Storm Tracking
New forecast layout! Learn more

10-Day Weather Forecast

Advertisements
Track Severe Weather on mobile